Hav Skandic — OZ2147 — position and weather

sailwx.info

Track history (hours):
 
Tides and Currents Weather Stations Pressure Air Temp Water Temp Dewpoint Dewpoint Depression Visibility Wind Speed Wind Dir Waves Ship Positions

Hav Skandic

Last reported at 2018-Jun-08 17:32 UTC. Time now 2018-Jun-20 17:28 UTC.
Position N 59°15' E 003°54'.
Warning: this ship's position is 11 days out of date.

Length 75 m; draft 6.3 m.

Type: Cargo ship. MMSI: 231837000.

Date/timePositionNaut miles runAvg speedWind from/ knotsBaromVisibWave heightAir tempDewpointWater temp
2018-Jun-08 17:32N 59°15' E 003°54'3 8.9
2018-Jun-08 17:13N 59°15' E 003°60'2 8.8
2018-Jun-08 16:59N 59°14' E 004°04'8 8.8
2018-Jun-08 16:05N 59°13' E 004°19'16 8.9
2018-Jun-08 14:16N 59°09' E 004°50'3 8.9
2018-Jun-08 13:59N 59°08' E 004°55'5 9.5
2018-Jun-08 13:30N 59°08' E 005°03'5 9.4
2018-Jun-08 13:00N 59°07' E 005°12'5 9.9
2018-Jun-08 12:30N 59°08' E 005°22'5 9.9
2018-Jun-08 12:00N 59°09' E 005°31'5 9.1
2018-Jun-08 11:30N 59°09' E 005°40'5 9.5
2018-Jun-08 11:00N 59°08' E 005°49'4 7.7
2018-Jun-08 10:30N 59°07' E 005°56'5 9.2
2018-Jun-08 10:00N 59°08' E 006°05'3 5.3
2018-Jun-08 09:30N 59°09' E 006°10'0 0.0
2018-Jun-08 09:00N 59°09' E 006°10'0 0.0
2018-Jun-08 08:30N 59°09' E 006°10'0 0.0
2018-Jun-08 08:00N 59°09' E 006°10'0 0.0
2018-Jun-08 07:30N 59°09' E 006°10'0 0.0
2018-Jun-08 07:00N 59°09' E 006°10'0 0.0
2018-Jun-08 06:30N 59°09' E 006°10'0 0.0
2018-Jun-08 06:00N 59°09' E 006°10'0 0.0
2018-Jun-08 05:30N 59°09' E 006°10'0 0.0
2018-Jun-08 05:00N 59°09' E 006°10'0 0.0
2018-Jun-08 04:30N 59°09' E 006°10'0 0.0
2018-Jun-08 04:00N 59°09' E 006°10'0 0.0
2018-Jun-08 03:30N 59°09' E 006°10'0 0.0
2018-Jun-08 03:00N 59°09' E 006°10'0 0.0
2018-Jun-08 02:30N 59°09' E 006°10'0 0.0
2018-Jun-08 02:00N 59°09' E 006°10'0 0.0
2018-Jun-08 01:30N 59°09' E 006°10'0 0.0
2018-Jun-08 01:00N 59°09' E 006°10'0 0.0
2018-Jun-08 00:30N 59°09' E 006°10'0 0.0
2018-Jun-08 00:00N 59°09' E 006°10'0 0.0
2018-Jun-07 23:30N 59°09' E 006°10'0 0.0
2018-Jun-07 23:00N 59°09' E 006°10'0 0.0
2018-Jun-07 22:30N 59°09' E 006°10'0 0.0
2018-Jun-07 22:00N 59°09' E 006°10'0 0.0
2018-Jun-07 21:30N 59°09' E 006°10'1 2.8
2018-Jun-07 21:00N 59°09' E 006°07'510.5
2018-Jun-07 20:30N 59°07' E 005°57'4 9.0
2018-Jun-07 20:00N 59°08' E 005°49'510.9
2018-Jun-07 19:30N 59°09' E 005°38'510.4
2018-Jun-07 19:00N 59°09' E 005°28'5 9.3
2018-Jun-07 18:30N 59°11' E 005°20'611.3
2018-Jun-07 18:00N 59°17' E 005°20'4 7.2
2018-Jun-07 17:30N 59°20' E 005°19'0 0.0
2018-Jun-07 16:59N 59°20' E 005°19'0 0.0
2018-Jun-07 16:30N 59°20' E 005°19'0 0.0
2018-Jun-07 16:00N 59°20' E 005°19'0 0.0
2018-Jun-07 15:30N 59°20' E 005°19'0 0.0
2018-Jun-07 14:59N 59°20' E 005°19'0 0.0
2018-Jun-07 14:30N 59°20' E 005°19'0 0.0
2018-Jun-07 14:00N 59°20' E 005°19'0 0.0
2018-Jun-07 13:30N 59°20' E 005°19'0 0.0
2018-Jun-07 13:00N 59°20' E 005°19'0 0.0
2018-Jun-07 12:30N 59°20' E 005°19'0 0.0
2018-Jun-07 12:00N 59°20' E 005°19'0 0.0
2018-Jun-07 11:28N 59°20' E 005°19'0 0.0
2018-Jun-07 11:00N 59°20' E 005°19'0 0.0
2018-Jun-07 10:30N 59°20' E 005°19'0 0.0
2018-Jun-07 09:59N 59°20' E 005°19'0 0.0
2018-Jun-07 09:29N 59°20' E 005°19'0 0.0
2018-Jun-07 08:59N 59°20' E 005°19'0 0.0
2018-Jun-07 08:28N 59°20' E 005°19'0 0.0
2018-Jun-07 07:58N 59°20' E 005°19'0 0.0
2018-Jun-07 07:30N 59°20' E 005°19'0 0.0
2018-Jun-07 07:00N 59°20' E 005°19'0 0.0
2018-Jun-07 06:30N 59°20' E 005°19'1 2.4
2018-Jun-07 06:00N 59°19' E 005°20'1 3.0
2018-Jun-07 05:30N 59°18' E 005°20'3 6.1
2018-Jun-07 05:00N 59°15' E 005°21'4 7.3
2018-Jun-07 04:30N 59°11' E 005°22'4 7.7
2018-Jun-07 04:00N 59°07' E 005°21'4 7.3
2018-Jun-07 03:30N 59°04' E 005°21'4 7.4
2018-Jun-07 03:00N 59°00' E 005°19'4 8.3
2018-Jun-07 02:30N 58°56' E 005°16'510.4
2018-Jun-07 02:00N 58°52' E 005°11'510.2
2018-Jun-07 01:30N 58°47' E 005°07'510.2
2018-Jun-07 01:00N 58°43' E 005°01'510.2
2018-Jun-07 00:30N 58°38' E 004°57'5 9.8
2018-Jun-07 00:00N 58°34' E 004°53'5 9.6
2018-Jun-06 23:30N 58°30' E 004°49'5 9.8
2018-Jun-06 23:00N 58°25' E 004°45'5 9.8
2018-Jun-06 22:30N 58°21' E 004°40'5 9.6
2018-Jun-06 22:00N 58°17' E 004°37'8 9.7
2018-Jun-06 21:11N 58°10' E 004°29'2 9.6
2018-Jun-06 21:00N 58°08' E 004°28'5 9.4
2018-Jun-06 20:25N 58°03' E 004°23'9 9.7
2018-Jun-06 19:29N 57°55' E 004°16'10 9.7
2018-Jun-06 18:25N 57°46' E 004°07'188 9.4
2018-Jun-05 22:21N 54°58' E 001°32'3 8.9
2018-Jun-05 21:58N 54°55' E 001°29'27 8.6
2018-Jun-05 18:53N 54°31' E 001°08'8 8.7
2018-Jun-05 17:57N 54°24' E 001°02'7 8.8
2018-Jun-05 17:06N 54°18' E 000°56'8 9.0
2018-Jun-05 16:10N 54°10' E 000°49'3 9.3
2018-Jun-05 15:50N 54°07' E 000°46'5 9.5
2018-Jun-05 15:15N 54°03' E 000°42'3 9.4
2018-Jun-05 14:59N 54°00' E 000°41'4 9.4
2018-Jun-05 14:30N 53°56' E 000°37'5 9.7
2018-Jun-05 14:00N 53°52' E 000°34'5 9.8
2018-Jun-05 13:28N 53°47' E 000°30'710.0
2018-Jun-05 12:45N 53°41' E 000°24'210.4
2018-Jun-05 12:30N 53°38' E 000°22'510.3
2018-Jun-05 12:00N 53°34' E 000°17'9 9.4
2018-Jun-05 11:01N 53°35' E 000°01'011.0
2018-Jun-05 10:59N 53°35' E 000°01'610.8
2018-Jun-05 10:27N 53°37' W 000°08'5 9.9
2018-Jun-05 10:00N 53°41' W 000°13'4 8.4
2018-Jun-05 09:30N 53°44' W 000°16'0 1.0
2018-Jun-05 09:00N 53°44' W 000°16'0 0.2
2018-Jun-05 08:30N 53°44' W 000°15'0 0.0
2018-Jun-05 07:55N 53°44' W 000°15'0 0.0
2018-Jun-05 07:30N 53°44' W 000°15'0 0.0
2018-Jun-05 07:00N 53°44' W 000°15'0 0.0
2018-Jun-05 06:30N 53°44' W 000°15'0 0.0
2018-Jun-05 05:59N 53°44' W 000°15'0 0.0
2018-Jun-05 05:29N 53°44' W 000°15'0 0.0
2018-Jun-05 04:53N 53°44' W 000°15'0 0.0
2018-Jun-05 04:30N 53°44' W 000°15'0 0.0
2018-Jun-05 04:00N 53°44' W 000°15'0 0.0
2018-Jun-05 03:30N 53°44' W 000°15'0 0.0
2018-Jun-05 02:57N 53°44' W 000°15'0 0.0
2018-Jun-05 02:11N 53°44' W 000°15'0 0.0
2018-Jun-05 02:00N 53°44' W 000°15'0 0.0
2018-Jun-05 01:29N 53°44' W 000°15'0 0.0
2018-Jun-05 01:00N 53°44' W 000°15'0 0.0
2018-Jun-05 00:29N 53°44' W 000°15'0 0.0
2018-Jun-05 00:00N 53°44' W 000°15'0 0.0
2018-Jun-04 23:26N 53°44' W 000°15'0 0.0
2018-Jun-04 23:00N 53°44' W 000°15'0 0.0
2018-Jun-04 22:30N 53°44' W 000°15'0 0.0
2018-Jun-04 22:00N 53°44' W 000°15'0 0.0
2018-Jun-04 21:29N 53°44' W 000°15'0 0.0
2018-Jun-04 21:00N 53°44' W 000°15'0 0.0
2018-Jun-04 20:22N 53°44' W 000°15'0 0.0
2018-Jun-04 20:00N 53°44' W 000°15'0 0.0
2018-Jun-04 19:30N 53°44' W 000°15'0 0.0
2018-Jun-04 19:00N 53°44' W 000°15'0 0.0
2018-Jun-04 18:29N 53°44' W 000°15'0 0.0
2018-Jun-04 18:00N 53°44' W 000°15'0 0.0
2018-Jun-04 17:30N 53°44' W 000°15'0 0.0
2018-Jun-04 17:00N 53°44' W 000°15'0 0.0
2018-Jun-04 16:30N 53°44' W 000°15'0 0.0
2018-Jun-04 16:00N 53°44' W 000°15'0 0.0
2018-Jun-04 15:30N 53°44' W 000°15'0 0.0
2018-Jun-04 15:00N 53°44' W 000°15'0 0.6
2018-Jun-04 14:30N 53°44' W 000°16'0 0.5
2018-Jun-04 14:00N 53°44' W 000°16'0 1.0
2018-Jun-04 13:30N 53°44' W 000°16'4 7.5
2018-Jun-04 13:00N 53°41' W 000°13'4 7.6
2018-Jun-04 12:30N 53°38' W 000°08'5 8.1
2018-Jun-04 11:54N 53°36' W 000°01'13 6.6
2018-Jun-04 09:57N 53°37' E 000°21'31 8.8
2018-Jun-04 06:24N 54°06' E 000°00'512.5
2018-Jun-04 06:00N 54°11' W 000°03'612.0
2018-Jun-04 05:30N 54°16' W 000°08'611.8
2018-Jun-04 05:00N 54°21' W 000°13'611.6
2018-Jun-04 04:30N 54°26' W 000°17'611.4
2018-Jun-04 04:00N 54°31' W 000°22'711.3
2018-Jun-04 03:25N 54°37' W 000°27'2810.7
2018-Jun-04 00:47N 55°01' W 000°54'310.7
2018-Jun-04 00:30N 55°03' W 000°57'510.6
2018-Jun-04 00:00N 55°08' W 001°01'510.6
2018-Jun-03 23:30N 55°13' W 001°06'510.5
2018-Jun-03 23:00N 55°17' W 001°10'710.7
2018-Jun-03 22:19N 55°24' W 001°17'410.7
2018-Jun-03 22:00N 55°27' W 001°19'510.8
2018-Jun-03 21:30N 55°32' W 001°23'611.2
2018-Jun-03 21:00N 55°37' W 001°25'611.5
2018-Jun-03 20:30N 55°43' W 001°25'611.0
2018-Jun-03 20:00N 55°48' W 001°24'1111.4
2018-Jun-03 19:02N 55°60' W 001°24'012.3
2018-Jun-03 19:00N 55°60' W 001°24'611.2
2018-Jun-03 18:30N 56°06' W 001°24'711.4
2018-Jun-03 17:50N 56°13' W 001°24'411.6
2018-Jun-03 17:30N 56°17' W 001°25'5111.5
2018-Jun-03 13:06N 57°07' W 001°36'111.3
2018-Jun-03 13:00N 57°08' W 001°36'611.1
2018-Jun-03 12:30N 57°14' W 001°37'1410.8
2018-Jun-03 11:14N 57°27' W 001°40'210.7
2018-Jun-03 11:00N 57°30' W 001°40'510.4
2018-Jun-03 10:30N 57°35' W 001°43'  
2018-May-30 22:46N 59°14' E 004°47'3 9.7
2018-May-30 22:29N 59°13' E 004°52'5 9.9
2018-May-30 22:00N 59°11' E 004°60'510.8
2018-May-30 21:30N 59°08' E 005°09'5 9.7
2018-May-30 21:00N 59°07' E 005°18'4 8.5
2018-May-30 20:31N 59°08' E 005°27'4 8.3
2018-May-30 20:00N 59°09' E 005°35'4 8.9
2018-May-30 19:30N 59°08' E 005°43'4 9.1
2018-May-30 19:00N 59°07' E 005°52'4 7.2
2018-May-30 18:30N 59°08' E 005°59'4 8.4
2018-May-30 18:00N 59°09' E 006°07'2 3.5
2018-May-30 17:30N 59°09' E 006°10'0 0.0
2018-May-30 17:00N 59°09' E 006°10'0 0.0
2018-May-30 16:30N 59°09' E 006°10'0 0.0
2018-May-30 16:01N 59°09' E 006°10'0 0.0
2018-May-30 15:30N 59°09' E 006°10'0 0.0
2018-May-30 15:00N 59°09' E 006°10'0 0.0
2018-May-30 14:30N 59°09' E 006°10'0 0.0
2018-May-30 14:00N 59°09' E 006°10'0 0.0
2018-May-30 13:30N 59°09' E 006°10'0 0.0
2018-May-30 13:00N 59°09' E 006°10'0 0.4
2018-May-30 12:30N 59°09' E 006°10'5 9.1
2018-May-30 12:00N 59°08' E 006°01'5 9.3
2018-May-30 11:31N 59°06' E 005°52'510.2
2018-May-30 11:00N 59°08' E 005°43'510.6
2018-May-30 10:30N 59°09' E 005°33'611.0
2018-May-30 10:00N 59°08' E 005°22'510.0
2018-May-30 09:30N 59°07' E 005°12'4 8.4
2018-May-30 08:59N 59°09' E 005°05'4 9.1
2018-May-30 08:30N 59°11' E 004°57'510.0
2018-May-30 08:01N 59°14' E 004°49'  
Track history (hours):
 
Tides and Currents Weather Stations Pressure Air Temp Water Temp Dewpoint Dewpoint Depression Visibility Wind Speed Wind Dir Waves Ship Positions

Hav Skandic

Last reported at 2018-Jun-08 17:32 UTC. Time now 2018-Jun-20 17:28 UTC.
Position N 59°15' E 003°54'.
Warning: this ship's position is 11 days out of date.

Length 75 m; draft 6.3 m.

Type: Cargo ship. MMSI: 231837000.

Date/timePositionNaut miles runAvg speedWind from/ knotsBaromVisibWave heightAir tempDewpointWater temp
2018-Jun-08 17:32N 59°15' E 003°54'3 8.9
2018-Jun-08 17:13N 59°15' E 003°60'2 8.8
2018-Jun-08 16:59N 59°14' E 004°04'8 8.8
2018-Jun-08 16:05N 59°13' E 004°19'16 8.9
2018-Jun-08 14:16N 59°09' E 004°50'3 8.9
2018-Jun-08 13:59N 59°08' E 004°55'5 9.5
2018-Jun-08 13:30N 59°08' E 005°03'5 9.4
2018-Jun-08 13:00N 59°07' E 005°12'5 9.9
2018-Jun-08 12:30N 59°08' E 005°22'5 9.9
2018-Jun-08 12:00N 59°09' E 005°31'5 9.1
2018-Jun-08 11:30N 59°09' E 005°40'5 9.5
2018-Jun-08 11:00N 59°08' E 005°49'4 7.7
2018-Jun-08 10:30N 59°07' E 005°56'5 9.2
2018-Jun-08 10:00N 59°08' E 006°05'3 5.3
2018-Jun-08 09:30N 59°09' E 006°10'0 0.0
2018-Jun-08 09:00N 59°09' E 006°10'0 0.0
2018-Jun-08 08:30N 59°09' E 006°10'0 0.0
2018-Jun-08 08:00N 59°09' E 006°10'0 0.0
2018-Jun-08 07:30N 59°09' E 006°10'0 0.0
2018-Jun-08 07:00N 59°09' E 006°10'0 0.0
2018-Jun-08 06:30N 59°09' E 006°10'0 0.0
2018-Jun-08 06:00N 59°09' E 006°10'0 0.0
2018-Jun-08 05:30N 59°09' E 006°10'0 0.0
2018-Jun-08 05:00N 59°09' E 006°10'0 0.0
2018-Jun-08 04:30N 59°09' E 006°10'0 0.0
2018-Jun-08 04:00N 59°09' E 006°10'0 0.0
2018-Jun-08 03:30N 59°09' E 006°10'0 0.0
2018-Jun-08 03:00N 59°09' E 006°10'0 0.0
2018-Jun-08 02:30N 59°09' E 006°10'0 0.0
2018-Jun-08 02:00N 59°09' E 006°10'0 0.0
2018-Jun-08 01:30N 59°09' E 006°10'0 0.0
2018-Jun-08 01:00N 59°09' E 006°10'0 0.0
2018-Jun-08 00:30N 59°09' E 006°10'0 0.0
2018-Jun-08 00:00N 59°09' E 006°10'0 0.0
2018-Jun-07 23:30N 59°09' E 006°10'0 0.0
2018-Jun-07 23:00N 59°09' E 006°10'0 0.0
2018-Jun-07 22:30N 59°09' E 006°10'0 0.0
2018-Jun-07 22:00N 59°09' E 006°10'0 0.0
2018-Jun-07 21:30N 59°09' E 006°10'1 2.8
2018-Jun-07 21:00N 59°09' E 006°07'510.5
2018-Jun-07 20:30N 59°07' E 005°57'4 9.0
2018-Jun-07 20:00N 59°08' E 005°49'510.9
2018-Jun-07 19:30N 59°09' E 005°38'510.4
2018-Jun-07 19:00N 59°09' E 005°28'5 9.3
2018-Jun-07 18:30N 59°11' E 005°20'611.3
2018-Jun-07 18:00N 59°17' E 005°20'4 7.2
2018-Jun-07 17:30N 59°20' E 005°19'0 0.0
2018-Jun-07 16:59N 59°20' E 005°19'0 0.0
2018-Jun-07 16:30N 59°20' E 005°19'0 0.0
2018-Jun-07 16:00N 59°20' E 005°19'0 0.0
2018-Jun-07 15:30N 59°20' E 005°19'0 0.0
2018-Jun-07 14:59N 59°20' E 005°19'0 0.0
2018-Jun-07 14:30N 59°20' E 005°19'0 0.0
2018-Jun-07 14:00N 59°20' E 005°19'0 0.0
2018-Jun-07 13:30N 59°20' E 005°19'0 0.0
2018-Jun-07 13:00N 59°20' E 005°19'0 0.0
2018-Jun-07 12:30N 59°20' E 005°19'0 0.0
2018-Jun-07 12:00N 59°20' E 005°19'0 0.0
2018-Jun-07 11:28N 59°20' E 005°19'0 0.0
2018-Jun-07 11:00N 59°20' E 005°19'0 0.0
2018-Jun-07 10:30N 59°20' E 005°19'0 0.0
2018-Jun-07 09:59N 59°20' E 005°19'0 0.0
2018-Jun-07 09:29N 59°20' E 005°19'0 0.0
2018-Jun-07 08:59N 59°20' E 005°19'0 0.0
2018-Jun-07 08:28N 59°20' E 005°19'0 0.0
2018-Jun-07 07:58N 59°20' E 005°19'0 0.0
2018-Jun-07 07:30N 59°20' E 005°19'0 0.0
2018-Jun-07 07:00N 59°20' E 005°19'0 0.0
2018-Jun-07 06:30N 59°20' E 005°19'1 2.4
2018-Jun-07 06:00N 59°19' E 005°20'1 3.0
2018-Jun-07 05:30N 59°18' E 005°20'3 6.1
2018-Jun-07 05:00N 59°15' E 005°21'4 7.3
2018-Jun-07 04:30N 59°11' E 005°22'4 7.7
2018-Jun-07 04:00N 59°07' E 005°21'4 7.3
2018-Jun-07 03:30N 59°04' E 005°21'4 7.4
2018-Jun-07 03:00N 59°00' E 005°19'4 8.3
2018-Jun-07 02:30N 58°56' E 005°16'510.4
2018-Jun-07 02:00N 58°52' E 005°11'510.2
2018-Jun-07 01:30N 58°47' E 005°07'510.2
2018-Jun-07 01:00N 58°43' E 005°01'510.2
2018-Jun-07 00:30N 58°38' E 004°57'5 9.8
2018-Jun-07 00:00N 58°34' E 004°53'5 9.6
2018-Jun-06 23:30N 58°30' E 004°49'5 9.8
2018-Jun-06 23:00N 58°25' E 004°45'5 9.8
2018-Jun-06 22:30N 58°21' E 004°40'5 9.6
2018-Jun-06 22:00N 58°17' E 004°37'8 9.7
2018-Jun-06 21:11N 58°10' E 004°29'2 9.6
2018-Jun-06 21:00N 58°08' E 004°28'5 9.4
2018-Jun-06 20:25N 58°03' E 004°23'9 9.7
2018-Jun-06 19:29N 57°55' E 004°16'10 9.7
2018-Jun-06 18:25N 57°46' E 004°07'188 9.4
2018-Jun-05 22:21N 54°58' E 001°32'3 8.9
2018-Jun-05 21:58N 54°55' E 001°29'27 8.6
2018-Jun-05 18:53N 54°31' E 001°08'8 8.7
2018-Jun-05 17:57N 54°24' E 001°02'7 8.8
2018-Jun-05 17:06N 54°18' E 000°56'8 9.0
2018-Jun-05 16:10N 54°10' E 000°49'3 9.3
2018-Jun-05 15:50N 54°07' E 000°46'5 9.5
2018-Jun-05 15:15N 54°03' E 000°42'3 9.4
2018-Jun-05 14:59N 54°00' E 000°41'4 9.4
2018-Jun-05 14:30N 53°56' E 000°37'5 9.7
2018-Jun-05 14:00N 53°52' E 000°34'5 9.8
2018-Jun-05 13:28N 53°47' E 000°30'710.0
2018-Jun-05 12:45N 53°41' E 000°24'210.4
2018-Jun-05 12:30N 53°38' E 000°22'510.3
2018-Jun-05 12:00N 53°34' E 000°17'9 9.4
2018-Jun-05 11:01N 53°35' E 000°01'011.0
2018-Jun-05 10:59N 53°35' E 000°01'610.8
2018-Jun-05 10:27N 53°37' W 000°08'5 9.9
2018-Jun-05 10:00N 53°41' W 000°13'4 8.4
2018-Jun-05 09:30N 53°44' W 000°16'0 1.0
2018-Jun-05 09:00N 53°44' W 000°16'0 0.2
2018-Jun-05 08:30N 53°44' W 000°15'0 0.0
2018-Jun-05 07:55N 53°44' W 000°15'0 0.0
2018-Jun-05 07:30N 53°44' W 000°15'0 0.0
2018-Jun-05 07:00N 53°44' W 000°15'0 0.0
2018-Jun-05 06:30N 53°44' W 000°15'0 0.0
2018-Jun-05 05:59N 53°44' W 000°15'0 0.0
2018-Jun-05 05:29N 53°44' W 000°15'0 0.0
2018-Jun-05 04:53N 53°44' W 000°15'0 0.0
2018-Jun-05 04:30N 53°44' W 000°15'0 0.0
2018-Jun-05 04:00N 53°44' W 000°15'0 0.0
2018-Jun-05 03:30N 53°44' W 000°15'0 0.0
2018-Jun-05 02:57N 53°44' W 000°15'0 0.0
2018-Jun-05 02:11N 53°44' W 000°15'0 0.0
2018-Jun-05 02:00N 53°44' W 000°15'0 0.0
2018-Jun-05 01:29N 53°44' W 000°15'0 0.0
2018-Jun-05 01:00N 53°44' W 000°15'0 0.0
2018-Jun-05 00:29N 53°44' W 000°15'0 0.0
2018-Jun-05 00:00N 53°44' W 000°15'0 0.0
2018-Jun-04 23:26N 53°44' W 000°15'0 0.0
2018-Jun-04 23:00N 53°44' W 000°15'0 0.0
2018-Jun-04 22:30N 53°44' W 000°15'0 0.0
2018-Jun-04 22:00N 53°44' W 000°15'0 0.0
2018-Jun-04 21:29N 53°44' W 000°15'0 0.0
2018-Jun-04 21:00N 53°44' W 000°15'0 0.0
2018-Jun-04 20:22N 53°44' W 000°15'0 0.0
2018-Jun-04 20:00N 53°44' W 000°15'0 0.0
2018-Jun-04 19:30N 53°44' W 000°15'0 0.0
2018-Jun-04 19:00N 53°44' W 000°15'0 0.0
2018-Jun-04 18:29N 53°44' W 000°15'0 0.0
2018-Jun-04 18:00N 53°44' W 000°15'0 0.0
2018-Jun-04 17:30N 53°44' W 000°15'0 0.0
2018-Jun-04 17:00N 53°44' W 000°15'0 0.0
2018-Jun-04 16:30N 53°44' W 000°15'0 0.0
2018-Jun-04 16:00N 53°44' W 000°15'0 0.0
2018-Jun-04 15:30N 53°44' W 000°15'0 0.0
2018-Jun-04 15:00N 53°44' W 000°15'0 0.6
2018-Jun-04 14:30N 53°44' W 000°16'0 0.5
2018-Jun-04 14:00N 53°44' W 000°16'0 1.0
2018-Jun-04 13:30N 53°44' W 000°16'4 7.5
2018-Jun-04 13:00N 53°41' W 000°13'4 7.6
2018-Jun-04 12:30N 53°38' W 000°08'5 8.1
2018-Jun-04 11:54N 53°36' W 000°01'13 6.6
2018-Jun-04 09:57N 53°37' E 000°21'31 8.8
2018-Jun-04 06:24N 54°06' E 000°00'512.5
2018-Jun-04 06:00N 54°11' W 000°03'612.0
2018-Jun-04 05:30N 54°16' W 000°08'611.8
2018-Jun-04 05:00N 54°21' W 000°13'611.6
2018-Jun-04 04:30N 54°26' W 000°17'611.4
2018-Jun-04 04:00N 54°31' W 000°22'711.3
2018-Jun-04 03:25N 54°37' W 000°27'2810.7
2018-Jun-04 00:47N 55°01' W 000°54'310.7
2018-Jun-04 00:30N 55°03' W 000°57'510.6
2018-Jun-04 00:00N 55°08' W 001°01'510.6
2018-Jun-03 23:30N 55°13' W 001°06'510.5
2018-Jun-03 23:00N 55°17' W 001°10'710.7
2018-Jun-03 22:19N 55°24' W 001°17'410.7
2018-Jun-03 22:00N 55°27' W 001°19'510.8
2018-Jun-03 21:30N 55°32' W 001°23'611.2
2018-Jun-03 21:00N 55°37' W 001°25'611.5
2018-Jun-03 20:30N 55°43' W 001°25'611.0
2018-Jun-03 20:00N 55°48' W 001°24'1111.4
2018-Jun-03 19:02N 55°60' W 001°24'012.3
2018-Jun-03 19:00N 55°60' W 001°24'611.2
2018-Jun-03 18:30N 56°06' W 001°24'711.4
2018-Jun-03 17:50N 56°13' W 001°24'411.6
2018-Jun-03 17:30N 56°17' W 001°25'5111.5
2018-Jun-03 13:06N 57°07' W 001°36'111.3
2018-Jun-03 13:00N 57°08' W 001°36'611.1
2018-Jun-03 12:30N 57°14' W 001°37'1410.8
2018-Jun-03 11:14N 57°27' W 001°40'210.7
2018-Jun-03 11:00N 57°30' W 001°40'510.4
2018-Jun-03 10:30N 57°35' W 001°43'  
2018-May-30 22:46N 59°14' E 004°47'3 9.7
2018-May-30 22:29N 59°13' E 004°52'5 9.9
2018-May-30 22:00N 59°11' E 004°60'510.8
2018-May-30 21:30N 59°08' E 005°09'5 9.7
2018-May-30 21:00N 59°07' E 005°18'4 8.5
2018-May-30 20:31N 59°08' E 005°27'4 8.3
2018-May-30 20:00N 59°09' E 005°35'4 8.9
2018-May-30 19:30N 59°08' E 005°43'4 9.1
2018-May-30 19:00N 59°07' E 005°52'4 7.2
2018-May-30 18:30N 59°08' E 005°59'4 8.4
2018-May-30 18:00N 59°09' E 006°07'2 3.5
2018-May-30 17:30N 59°09' E 006°10'0 0.0
2018-May-30 17:00N 59°09' E 006°10'0 0.0
2018-May-30 16:30N 59°09' E 006°10'0 0.0
2018-May-30 16:01N 59°09' E 006°10'0 0.0
2018-May-30 15:30N 59°09' E 006°10'0 0.0
2018-May-30 15:00N 59°09' E 006°10'0 0.0
2018-May-30 14:30N 59°09' E 006°10'0 0.0
2018-May-30 14:00N 59°09' E 006°10'0 0.0
2018-May-30 13:30N 59°09' E 006°10'0 0.0
2018-May-30 13:00N 59°09' E 006°10'0 0.4
2018-May-30 12:30N 59°09' E 006°10'5 9.1
2018-May-30 12:00N 59°08' E 006°01'5 9.3
2018-May-30 11:31N 59°06' E 005°52'510.2
2018-May-30 11:00N 59°08' E 005°43'510.6
2018-May-30 10:30N 59°09' E 005°33'611.0
2018-May-30 10:00N 59°08' E 005°22'510.0
2018-May-30 09:30N 59°07' E 005°12'4 8.4
2018-May-30 08:59N 59°09' E 005°05'4 9.1
2018-May-30 08:30N 59°11' E 004°57'510.0
2018-May-30 08:01N 59°14' E 004°49'  

Dump ship's entire track history